Time;durP1;ratioP1;P1;durP2;ratioP2;P2;SDS_P1;SDS_P2;PMS_P1;PMS_P2;Temp;Humidity;BMP_temperature;BMP_pressure;BME280_temperature;BME280_humidity;BME280_pressure;Samples;Min_cycle;Max_cycle;Signal;HPM_P1;HPM_P2
2023/02/07 00:00:30;;;;;;;127.60;56.40;;;;;;;-8.74;76.32;102313.73;218944;1254;140245;-66
2023/02/07 00:05:54;;;;;;;171.80;68.60;;;;;;;-8.79;76.31;102309.06;218565;1254;139708;-65
2023/02/07 00:11:04;;;;;;;157.10;61.30;;;;;;;-8.82;76.77;102317.06;219626;1254;139255;-66
2023/02/07 00:16:07;;;;;;;126.50;55.60;;;;;;;-8.83;76.91;102312.43;220263;1256;139578;-63
2023/02/07 00:21:18;;;;;;;114.60;44.00;;;;;;;-8.87;76.96;102309.81;220645;1254;139244;-64
2023/02/07 00:26:24;;;;;;;117.80;46.50;;;;;;;-9.00;76.48;102296.61;220948;1254;141610;-66
2023/02/07 00:31:30;;;;;;;86.20;42.60;;;;;;;-9.06;76.23;102277.33;220721;1254;140613;-67
2023/02/07 00:36:35;;;;;;;75.30;35.10;;;;;;;-9.07;76.47;102268.06;220108;1254;141108;-66
2023/02/07 00:41:39;;;;;;;123.30;47.10;;;;;;;-9.07;76.22;102273.20;218927;1254;140288;-60
2023/02/07 00:46:43;;;;;;;98.00;42.70;;;;;;;-8.99;76.71;102269.89;220236;1257;140742;-64
2023/02/07 00:51:48;;;;;;;84.40;42.30;;;;;;;-8.95;76.46;102266.98;218731;1254;140098;-65
2023/02/07 00:56:53;;;;;;;105.90;44.10;;;;;;;-8.94;76.36;102268.67;220052;1253;139672;-60
2023/02/07 01:01:56;;;;;;;124.20;48.80;;;;;;;-8.86;76.70;102257.92;220190;1253;140869;-65
2023/02/07 01:07:01;;;;;;;110.80;49.80;;;;;;;-8.72;76.84;102251.59;219023;1254;141569;-62
2023/02/07 01:12:05;;;;;;;93.00;40.60;;;;;;;-8.71;76.63;102249.33;218340;1254;139861;-63
2023/02/07 01:17:09;;;;;;;84.10;39.50;;;;;;;-8.84;76.40;102244.91;218867;1257;139495;-64
2023/02/07 01:22:13;;;;;;;95.10;49.10;;;;;;;-8.94;76.95;102241.63;219218;1253;140104;-64
2023/02/07 01:27:17;;;;;;;83.30;35.40;;;;;;;-8.88;77.71;102237.30;218968;1254;139848;-63
2023/02/07 01:32:22;;;;;;;106.50;48.30;;;;;;;-8.79;77.32;102233.73;218685;1253;140430;-64
2023/02/07 01:37:27;;;;;;;94.40;43.40;;;;;;;-8.71;77.47;102235.37;218935;1254;140084;-61
2023/02/07 01:42:31;;;;;;;115.80;51.10;;;;;;;-8.52;77.99;102233.67;220344;1254;141608;-59
2023/02/07 01:47:37;;;;;;;106.60;44.20;;;;;;;-8.27;78.39;102236.77;218038;1255;140275;-61
2023/02/07 01:52:41;;;;;;;102.20;50.10;;;;;;;-8.04;78.21;102245.44;220560;1254;141360;-62
2023/02/07 01:57:45;;;;;;;99.70;48.80;;;;;;;-7.85;78.43;102250.28;219761;1252;139879;-64
2023/02/07 02:02:50;;;;;;;106.40;49.50;;;;;;;-7.68;78.84;102250.89;220661;1253;139389;-63
2023/02/07 02:07:55;;;;;;;111.00;51.00;;;;;;;-7.57;79.03;102242.84;221104;1253;141066;-63
2023/02/07 02:13:10;;;;;;;94.30;43.90;;;;;;;-7.49;79.03;102230.45;221170;1253;140060;-62
2023/02/07 02:18:35;;;;;;;96.80;44.20;;;;;;;-7.38;79.48;102225.92;220740;1253;139621;-62
2023/02/07 02:24:17;;;;;;;102.60;42.50;;;;;;;-7.22;79.81;102220.94;219950;1257;139821;-62
2023/02/07 02:29:44;;;;;;;101.30;43.50;;;;;;;-7.05;80.04;102221.33;219617;1254;139119;-62
2023/02/07 02:34:58;;;;;;;94.60;41.00;;;;;;;-6.88;80.03;102221.64;220755;1253;142024;-62
2023/02/07 02:40:11;;;;;;;96.70;39.40;;;;;;;-6.70;80.02;102223.33;219575;1253;140860;-62
2023/02/07 02:45:43;;;;;;;87.20;37.20;;;;;;;-6.47;80.38;102222.89;220108;1253;140144;-63
2023/02/07 02:50:49;;;;;;;90.60;39.40;;;;;;;-6.21;80.55;102221.45;219161;1253;140121;-63
2023/02/07 02:56:14;;;;;;;82.80;41.70;;;;;;;-6.10;80.56;102220.59;218922;1254;139525;-63
2023/02/07 03:02:04;;;;;;;73.60;36.60;;;;;;;-6.02;80.67;102219.71;219253;1253;138874;-63
2023/02/07 03:07:28;;;;;;;88.50;39.30;;;;;;;-5.93;80.95;102230.07;219065;1253;139400;-62
2023/02/07 03:12:37;;;;;;;73.40;40.10;;;;;;;-5.88;81.08;102233.24;219383;1254;140025;-63
2023/02/07 03:17:56;;;;;;;68.20;35.40;;;;;;;-5.84;80.84;102236.73;218479;1253;139361;-63
2023/02/07 03:23:03;;;;;;;64.40;29.00;;;;;;;-5.84;81.04;102236.21;219074;1253;139709;-63
2023/02/07 03:28:10;;;;;;;58.30;27.50;;;;;;;-5.83;81.08;102229.92;218771;1254;139200;-64
2023/02/07 03:33:15;;;;;;;67.90;27.80;;;;;;;-5.85;81.08;102227.57;219130;1254;140338;-64
2023/02/07 03:38:20;;;;;;;88.90;37.80;;;;;;;-5.84;81.14;102228.41;219293;1253;139441;-61
2023/02/07 03:43:28;;;;;;;82.40;36.90;;;;;;;-5.74;81.09;102224.46;218800;1254;139706;-62
2023/02/07 03:48:31;;;;;;;83.40;37.20;;;;;;;-5.62;81.28;102221.35;219480;1254;139888;-60
2023/02/07 03:53:34;;;;;;;83.20;38.70;;;;;;;-5.53;81.44;102220.08;219147;1253;139205;-62
2023/02/07 03:58:39;;;;;;;78.30;32.90;;;;;;;-5.46;81.71;102223.86;220696;1253;140021;-63
2023/02/07 04:03:44;;;;;;;74.00;37.70;;;;;;;-5.39;81.66;102221.65;221202;1253;139897;-63
2023/02/07 04:08:49;;;;;;;77.30;30.30;;;;;;;-5.32;81.71;102226.35;220640;1254;601269;-62
2023/02/07 04:13:53;;;;;;;79.30;36.10;;;;;;;-5.27;81.64;102222.98;220009;1253;139396;-61
2023/02/07 04:18:58;;;;;;;73.30;37.10;;;;;;;-5.16;81.44;102212.73;221116;1253;140957;-61
2023/02/07 04:24:02;;;;;;;68.60;34.60;;;;;;;-4.99;81.60;102206.27;221142;1253;144096;-62
2023/02/07 04:29:08;;;;;;;73.00;36.10;;;;;;;-4.87;81.71;102208.38;218998;1254;139038;-61
2023/02/07 04:34:11;;;;;;;77.80;37.90;;;;;;;-4.78;81.76;102212.80;219896;1253;141170;-61
2023/02/07 04:39:16;;;;;;;86.90;39.80;;;;;;;-4.74;81.74;102205.33;218643;1253;139431;-61
2023/02/07 04:44:21;;;;;;;69.00;30.00;;;;;;;-4.71;81.80;102204.33;220023;1253;139625;-62
2023/02/07 04:49:25;;;;;;;76.90;30.90;;;;;;;-4.72;81.84;102202.28;218456;1254;140259;-62
2023/02/07 04:54:30;;;;;;;71.30;34.70;;;;;;;-4.73;81.83;102210.99;219389;1253;140315;-60
2023/02/07 04:59:34;;;;;;;83.10;35.80;;;;;;;-4.71;81.90;102221.83;219323;1254;139983;-60
2023/02/07 05:04:38;;;;;;;76.80;34.10;;;;;;;-4.64;81.91;102219.77;218797;1253;139963;-64
2023/02/07 05:09:42;;;;;;;75.20;36.80;;;;;;;-4.53;82.00;102224.56;219430;1254;140257;-64
2023/02/07 05:14:46;;;;;;;74.20;38.50;;;;;;;-4.43;82.12;102217.10;219208;1254;139801;-64
2023/02/07 05:19:52;;;;;;;79.50;37.60;;;;;;;-4.38;82.34;102209.25;219213;1254;139786;-65
2023/02/07 05:24:56;;;;;;;76.90;37.00;;;;;;;-4.40;82.02;102215.43;218373;1254;139300;-66
2023/02/07 05:30:00;;;;;;;83.90;36.90;;;;;;;-4.43;82.09;102221.95;219492;1254;139315;-67
2023/02/07 05:35:04;;;;;;;77.20;37.30;;;;;;;-4.45;82.04;102228.64;218887;1253;140642;-66
2023/02/07 05:40:08;;;;;;;73.60;32.50;;;;;;;-4.44;82.21;102243.73;218900;1253;139531;-66
2023/02/07 05:45:12;;;;;;;69.00;32.30;;;;;;;-4.38;82.05;102246.91;218599;1254;141077;-65
2023/02/07 05:50:16;;;;;;;76.30;35.60;;;;;;;-4.29;82.04;102245.77;219083;1254;139753;-66
2023/02/07 05:55:20;;;;;;;69.60;35.70;;;;;;;-4.21;82.40;102245.85;219013;1254;139774;-66
2023/02/07 06:00:23;;;;;;;79.40;41.40;;;;;;;-4.18;82.44;102247.05;218519;1254;139394;-66
2023/02/07 06:05:30;;;;;;;76.70;37.60;;;;;;;-4.19;82.27;102241.40;218646;1254;140067;-65
2023/02/07 06:10:34;;;;;;;71.90;34.90;;;;;;;-4.18;82.37;102248.33;221044;1253;139915;-65
2023/02/07 06:15:38;;;;;;;82.70;38.50;;;;;;;-4.18;82.53;102254.36;220335;1253;139586;-64
2023/02/07 06:20:42;;;;;;;94.30;41.90;;;;;;;-4.12;82.53;102255.48;220954;1253;140078;-65
2023/02/07 06:25:48;;;;;;;89.70;40.90;;;;;;;-4.04;82.46;102259.23;220324;1253;141840;-63
2023/02/07 06:30:53;;;;;;;76.50;36.50;;;;;;;-3.95;82.21;102267.27;219696;1253;142058;-63
2023/02/07 06:35:57;;;;;;;86.70;39.80;;;;;;;-3.85;82.32;102268.64;219814;1254;140689;-64
2023/02/07 06:41:00;;;;;;;84.20;40.10;;;;;;;-3.78;82.32;102271.07;218550;1254;139226;-62
2023/02/07 06:46:05;;;;;;;84.80;37.70;;;;;;;-3.75;82.32;102273.69;219580;1254;139746;-61
2023/02/07 06:51:08;;;;;;;73.30;35.80;;;;;;;-3.71;82.69;102272.80;218990;1253;140294;-63
2023/02/07 06:56:12;;;;;;;69.20;36.90;;;;;;;-3.65;82.38;102279.73;219447;1253;140386;-61
2023/02/07 07:01:18;;;;;;;72.40;38.00;;;;;;;-3.53;82.51;102281.39;218280;1254;139908;-65
2023/02/07 07:06:23;;;;;;;78.50;37.30;;;;;;;-3.45;82.73;102277.63;218943;1253;139140;-65
2023/02/07 07:11:28;;;;;;;71.20;36.10;;;;;;;-3.38;82.80;102286.17;219567;1257;140369;-65
2023/02/07 07:16:32;;;;;;;74.90;37.30;;;;;;;-3.36;82.93;102278.01;218708;1254;139916;-64
2023/02/07 07:21:36;;;;;;;70.30;36.00;;;;;;;-3.33;82.73;102276.13;218576;1253;139930;-64
2023/02/07 07:26:40;;;;;;;81.00;35.70;;;;;;;-3.29;82.60;102280.73;219487;1254;140075;-62
2023/02/07 07:31:52;;;;;;;72.20;38.10;;;;;;;-3.18;82.76;102276.89;219093;1252;140038;-63
2023/02/07 07:36:57;;;;;;;85.20;39.10;;;;;;;-3.07;82.59;102270.53;219491;1253;139913;-62
2023/02/07 07:42:02;;;;;;;82.00;39.90;;;;;;;-2.98;82.69;102275.58;219400;1253;139357;-62
2023/02/07 07:47:07;;;;;;;93.50;42.60;;;;;;;-2.93;82.95;102274.80;219652;1253;139900;-64
2023/02/07 07:52:11;;;;;;;95.60;41.80;;;;;;;-2.85;82.52;102267.22;220132;1253;139618;-65
2023/02/07 07:57:15;;;;;;;103.80;44.80;;;;;;;-2.76;82.51;102268.40;221030;1254;139788;-67
2023/02/07 08:02:23;;;;;;;93.40;46.60;;;;;;;-2.69;82.20;102271.11;220995;1254;139768;-68
2023/02/07 08:07:27;;;;;;;85.70;39.50;;;;;;;-2.63;82.24;102275.00;219774;1253;140881;-66
2023/02/07 08:12:32;;;;;;;77.40;38.50;;;;;;;-2.53;82.57;102272.81;220989;1253;139695;-66
2023/02/07 08:17:36;;;;;;;84.70;38.20;;;;;;;-2.43;82.29;102272.05;220281;1253;140938;-66
2023/02/07 08:22:41;;;;;;;53.20;30.40;;;;;;;-2.29;82.40;102274.36;221147;1253;140615;-66
2023/02/07 08:27:46;;;;;;;57.40;31.40;;;;;;;-2.19;82.17;102277.64;218900;1257;139825;-66
2023/02/07 08:32:54;;;;;;;55.40;27.70;;;;;;;-2.12;82.41;102274.93;220231;1253;140470;-64
2023/02/07 08:37:58;;;;;;;50.20;28.60;;;;;;;-2.05;82.39;102280.64;219587;1253;140250;-65
2023/02/07 08:43:05;;;;;;;56.70;28.60;;;;;;;-2.02;82.10;102284.27;220252;1256;139168;-66
2023/02/07 08:48:12;;;;;;;49.40;25.20;;;;;;;-2.00;82.14;102290.64;220885;1252;140165;-67
2023/02/07 08:53:18;;;;;;;54.70;31.60;;;;;;;-2.00;82.22;102298.27;219473;1253;139511;-68
2023/02/07 08:58:24;;;;;;;52.10;29.90;;;;;;;-1.93;81.88;102297.49;218342;1254;140230;-65
2023/02/07 09:03:28;;;;;;;55.20;31.70;;;;;;;-1.82;81.97;102300.48;219195;1253;140429;-66
2023/02/07 09:08:33;;;;;;;91.00;39.70;;;;;;;-1.76;81.94;102303.08;218406;1254;139447;-64
2023/02/07 09:13:39;;;;;;;78.30;34.80;;;;;;;-1.73;81.94;102305.51;218749;1253;141210;-67
2023/02/07 09:18:47;;;;;;;91.40;37.40;;;;;;;-1.68;82.06;102312.21;218266;1254;223502;-64
2023/02/07 09:23:53;;;;;;;82.40;39.50;;;;;;;-1.63;81.81;102324.80;218748;1253;140051;-66
2023/02/07 09:29:00;;;;;;;91.00;40.10;;;;;;;-1.59;81.91;102331.92;219372;1253;139901;-64
2023/02/07 09:34:04;;;;;;;67.60;34.30;;;;;;;-1.58;81.68;102334.64;219437;1254;139289;-63
2023/02/07 09:39:09;;;;;;;62.30;29.90;;;;;;;-1.59;81.64;102337.66;220175;1253;139279;-65
2023/02/07 09:44:16;;;;;;;53.20;31.00;;;;;;;-1.61;81.52;102338.31;219577;1254;140121;-66
2023/02/07 09:49:30;;;;;;;;;;;;;;;-1.62;81.41;102335.90;218875;1253;141168;-75
2023/02/07 09:54:41;;;;;;;58.60;28.70;;;;;;;-1.65;81.43;102330.52;219435;1253;125766;-67
2023/02/07 09:59:54;;;;;;;49.80;25.70;;;;;;;-1.60;81.44;102332.48;219692;1254;139623;-68
2023/02/07 10:05:03;;;;;;;59.90;30.70;;;;;;;-1.46;81.31;102322.00;221074;1253;140726;-68
2023/02/07 10:10:17;;;;;;;51.70;28.80;;;;;;;-1.37;81.41;102318.33;220398;1254;139811;-68
2023/02/07 10:15:28;;;;;;;62.30;28.00;;;;;;;-1.31;81.37;102323.55;218190;1256;140087;-68
2023/02/07 10:20:56;;;;;;;55.40;24.80;;;;;;;-1.30;81.28;102320.73;219729;1254;139108;-67
2023/02/07 10:26:35;;;;;;;59.20;29.30;;;;;;;-1.32;80.85;102314.72;219022;1256;139552;-68
2023/02/07 10:31:43;;;;;;;62.10;28.40;;;;;;;-1.25;80.78;102305.38;218962;1253;139943;-67
2023/02/07 10:36:50;;;;;;;40.30;21.20;;;;;;;-1.19;80.96;102294.31;218465;1253;141910;-69
2023/02/07 10:41:56;;;;;;;37.10;18.20;;;;;;;-1.13;81.02;102292.73;218287;1254;139255;-67
2023/02/07 10:47:03;;;;;;;31.40;15.00;;;;;;;-1.07;81.06;102284.13;218703;1257;139922;-66
2023/02/07 10:52:36;;;;;;;16.10;11.60;;;;;;;-1.03;80.74;102290.70;219876;1254;141310;-67
2023/02/07 10:57:52;;;;;;;13.00;8.80;;;;;;;-1.05;80.79;102285.73;217993;1253;139415;-65
2023/02/07 11:03:13;;;;;;;23.00;13.20;;;;;;;-1.05;80.44;102286.48;218906;1254;138875;-67
2023/02/07 11:08:24;;;;;;;26.80;15.90;;;;;;;-0.97;80.65;102281.98;218420;1254;141488;-67
2023/02/07 11:13:31;;;;;;;28.30;19.70;;;;;;;-0.87;80.16;102276.05;219065;1257;139969;-68
2023/02/07 11:18:42;;;;;;;41.50;26.30;;;;;;;-0.80;80.11;102271.73;219782;1254;139044;-66
2023/02/07 11:23:49;;;;;;;32.10;16.80;;;;;;;-0.73;80.23;102264.34;218684;1254;139722;-68
2023/02/07 11:29:04;;;;;;;24.30;14.20;;;;;;;-0.62;80.15;102265.02;219926;1254;140055;-68
2023/02/07 11:34:43;;;;;;;24.60;14.90;;;;;;;-0.48;80.01;102258.16;219097;1253;140783;-68
2023/02/07 11:39:50;;;;;;;37.50;20.10;;;;;;;-0.29;79.83;102247.23;219601;1254;140845;-67
2023/02/07 11:44:54;;;;;;;31.20;18.40;;;;;;;-0.14;79.72;102254.08;218683;1254;140404;-68
2023/02/07 11:50:04;;;;;;;35.10;18.80;;;;;;;-0.03;79.64;102254.71;220935;1254;139604;-69
2023/02/07 11:55:18;;;;;;;36.10;19.00;;;;;;;0.12;79.60;102240.06;220357;1253;140779;-68
2023/02/07 12:00:28;;;;;;;33.70;19.50;;;;;;;0.22;79.03;102245.67;220689;1253;139507;-67
2023/02/07 12:05:38;;;;;;;26.70;17.10;;;;;;;0.30;78.70;102247.35;219821;1257;139867;-66
2023/02/07 12:10:48;;;;;;;38.00;23.50;;;;;;;0.42;78.42;102240.42;221068;1255;140818;-69
2023/02/07 12:16:09;;;;;;;32.30;18.00;;;;;;;0.41;78.17;102239.77;220713;1254;141109;-68
2023/02/07 12:21:15;;;;;;;26.80;18.10;;;;;;;0.42;78.17;102233.24;220570;1254;160107;-68
2023/02/07 12:26:44;;;;;;;32.70;20.80;;;;;;;0.44;77.67;102225.05;219287;1254;139307;-67
2023/02/07 12:32:07;;;;;;;;;;;;;;;0.57;77.99;102228.48;217896;1258;247563;-68
2023/02/07 12:37:36;;;;;;;36.00;21.50;;;;;;;0.58;77.80;102226.14;218736;1254;126394;-66
2023/02/07 12:42:44;;;;;;;30.90;18.80;;;;;;;0.59;77.58;102222.91;218274;1257;139328;-64
2023/02/07 12:48:01;;;;;;;41.50;18.00;;;;;;;0.59;77.20;102212.60;219729;1257;139489;-67
2023/02/07 12:53:16;;;;;;;29.80;17.70;;;;;;;0.68;77.14;102208.25;219016;1254;140092;-67
2023/02/07 12:58:32;;;;;;;31.70;19.70;;;;;;;0.68;76.91;102210.23;218304;1254;139823;-65
2023/02/07 13:04:01;;;;;;;31.50;20.20;;;;;;;0.68;77.16;102209.86;218222;1254;139897;-63
2023/02/07 13:09:14;;;;;;;23.00;17.20;;;;;;;0.68;76.95;102208.80;219379;1257;139786;-66
2023/02/07 13:14:36;;;;;;;26.00;17.10;;;;;;;0.69;76.81;102214.31;218189;1253;140451;-66
2023/02/07 13:19:57;;;;;;;19.00;14.70;;;;;;;0.71;76.55;102204.56;220438;1253;139614;-66
2023/02/07 13:25:06;;;;;;;32.80;16.80;;;;;;;0.63;76.53;102203.04;217796;1254;139642;-67
2023/02/07 13:30:16;;;;;;;29.80;17.10;;;;;;;0.52;76.30;102202.48;219521;1254;139840;-65
2023/02/07 13:35:29;;;;;;;26.10;16.20;;;;;;;0.55;76.57;102207.80;219772;1253;139731;-67
2023/02/07 13:40:45;;;;;;;30.50;16.80;;;;;;;0.58;76.60;102206.92;219509;1254;140184;-68
2023/02/07 13:46:24;;;;;;;23.50;15.80;;;;;;;0.56;76.71;102205.67;219293;1254;140920;-66
2023/02/07 13:51:50;;;;;;;22.90;14.90;;;;;;;0.52;76.24;102199.85;218415;1254;138849;-65
2023/02/07 14:02:23;;;;;;;17.00;9.50;;;;;;;0.47;76.28;102180.42;221012;1254;141303;-65
2023/02/07 14:07:34;;;;;;;24.00;14.60;;;;;;;0.45;76.11;102181.91;220965;1254;140129;-65
2023/02/07 14:12:39;;;;;;;28.70;17.90;;;;;;;0.41;76.07;102184.48;219589;1254;139365;-63
2023/02/07 14:17:43;;;;;;;28.00;16.50;;;;;;;0.40;75.88;102187.55;219784;1254;140358;-65
2023/02/07 14:22:53;;;;;;;29.90;17.40;;;;;;;0.38;75.82;102193.66;220040;1254;139727;-67
2023/02/07 14:28:15;;;;;;;28.30;17.00;;;;;;;0.34;76.11;102196.33;218233;1254;139940;-65
2023/02/07 14:33:21;;;;;;;22.50;14.90;;;;;;;0.28;75.89;102198.02;219058;1254;139483;-67
2023/02/07 14:38:41;;;;;;;23.60;16.10;;;;;;;0.19;75.97;102205.34;218294;1260;139868;-65
2023/02/07 14:43:50;;;;;;;30.00;17.10;;;;;;;0.09;76.32;102205.85;218278;1253;139118;-65
2023/02/07 14:49:34;;;;;;;26.80;16.10;;;;;;;0.05;76.15;102215.89;218604;1253;140999;-67
2023/02/07 14:54:42;;;;;;;29.30;17.10;;;;;;;-0.05;76.05;102222.73;218571;1253;140269;-66
2023/02/07 14:59:49;;;;;;;23.90;15.80;;;;;;;-0.22;76.31;102229.27;218168;1254;140054;-67
2023/02/07 15:04:54;;;;;;;25.90;14.60;;;;;;;-0.34;76.47;102233.80;219047;1256;140098;-65
2023/02/07 15:09:58;;;;;;;43.70;16.60;;;;;;;-0.47;76.67;102238.65;218880;1255;139381;-64
2023/02/07 15:15:05;;;;;;;26.60;16.00;;;;;;;-0.50;76.21;102242.52;219560;1254;141535;-67
2023/02/07 15:20:19;;;;;;;36.50;16.20;;;;;;;-0.53;76.31;102251.66;219320;1256;140307;-66
2023/02/07 15:25:26;;;;;;;24.10;15.50;;;;;;;-0.58;76.61;102257.92;218169;1254;139170;-68
2023/02/07 15:30:31;;;;;;;28.60;15.70;;;;;;;-0.64;77.11;102264.62;218883;1257;139343;-66
2023/02/07 15:35:38;;;;;;;27.30;14.10;;;;;;;-0.73;76.96;102270.97;218377;1257;139292;-69
2023/02/07 15:40:42;;;;;;;22.70;13.60;;;;;;;-0.81;77.20;102278.63;220684;1253;139344;-68
2023/02/07 15:45:58;;;;;;;24.00;13.50;;;;;;;-0.87;77.08;102282.19;219426;1256;139422;-69
2023/02/07 15:51:04;;;;;;;24.20;14.70;;;;;;;-0.86;77.05;102285.77;219269;1254;139647;-64
2023/02/07 15:56:14;;;;;;;21.70;15.30;;;;;;;-0.83;77.24;102291.54;219574;1254;139619;-67
2023/02/07 16:01:27;;;;;;;27.00;16.20;;;;;;;-0.82;77.27;102293.38;220562;1254;139825;-66
2023/02/07 16:06:31;;;;;;;22.10;13.80;;;;;;;-0.88;77.11;102296.21;220722;1254;532020;-67
2023/02/07 16:11:38;;;;;;;19.70;13.90;;;;;;;-0.88;77.25;102298.67;220360;1253;139427;-67
2023/02/07 16:16:56;;;;;;;26.90;15.40;;;;;;;-0.82;77.29;102304.38;220715;1256;141577;-67
2023/02/07 16:22:01;;;;;;;21.70;13.00;;;;;;;-0.78;77.54;102309.52;218238;1255;139331;-70
2023/02/07 16:27:26;;;;;;;25.20;14.10;;;;;;;-0.81;77.27;102313.59;219542;1256;140240;-69
2023/02/07 16:32:46;;;;;;;26.50;16.40;;;;;;;-0.88;77.45;102321.67;218970;1254;139177;-67
2023/02/07 16:37:57;;;;;;;22.40;12.20;;;;;;;-0.94;77.46;102317.93;219898;1254;138914;-67
2023/02/07 16:43:37;;;;;;;21.50;13.80;;;;;;;-1.02;77.45;102315.77;218472;1254;139632;-68
2023/02/07 16:48:42;;;;;;;26.50;15.10;;;;;;;-1.08;77.65;102315.27;218834;1257;139609;-69
2023/02/07 16:53:47;;;;;;;27.50;15.70;;;;;;;-1.05;77.43;102319.29;218520;1256;140920;-63
2023/02/07 16:58:52;;;;;;;27.30;16.70;;;;;;;-1.05;77.68;102324.52;219002;1254;139644;-69
2023/02/07 17:03:57;;;;;;;23.70;16.30;;;;;;;-1.06;77.89;102329.26;218979;1254;139231;-69
2023/02/07 17:09:01;;;;;;;39.10;19.40;;;;;;;-1.08;77.71;102335.70;219249;1257;141574;-69
2023/02/07 17:14:06;;;;;;;46.20;22.10;;;;;;;-1.13;77.89;102346.30;218411;1256;141033;-68
2023/02/07 17:19:19;;;;;;;62.60;24.50;;;;;;;-1.22;77.96;102343.52;218539;1254;139048;-67
2023/02/07 17:24:24;;;;;;;40.40;21.20;;;;;;;-1.24;78.19;102347.04;219213;1255;139900;-67
2023/02/07 17:29:28;;;;;;;39.80;20.60;;;;;;;-1.27;78.05;102351.73;219687;1258;139493;-67
2023/02/07 17:34:33;;;;;;;26.60;16.30;;;;;;;-1.21;78.23;102354.69;220244;1257;141095;-68
2023/02/07 17:39:38;;;;;;;26.70;18.00;;;;;;;-1.23;77.72;102351.98;219374;1254;141492;-65
2023/02/07 17:44:44;;;;;;;35.40;19.00;;;;;;;-1.27;78.00;102350.16;220218;1254;138778;-71
2023/02/07 17:49:47;;;;;;;37.90;22.20;;;;;;;-1.25;78.29;102354.02;221176;1254;139977;-70
2023/02/07 17:54:52;;;;;;;46.20;24.30;;;;;;;-1.20;78.68;102360.84;221080;1254;140053;-68
2023/02/07 17:59:59;;;;;;;30.60;18.30;;;;;;;-1.17;78.38;102372.19;220578;1254;139421;-66
2023/02/07 18:05:03;;;;;;;107.70;38.70;;;;;;;-1.16;78.36;102379.46;220615;1254;139388;-71
2023/02/07 18:10:08;;;;;;;259.20;65.90;;;;;;;-1.16;78.27;102379.13;220652;1254;139766;-65
2023/02/07 18:15:12;;;;;;;298.90;74.90;;;;;;;-1.11;78.41;102378.44;219361;1254;140544;-65
2023/02/07 18:20:23;;;;;;;76.80;26.50;;;;;;;-1.11;78.02;102380.03;219257;1254;139591;-67
2023/02/07 18:25:30;;;;;;;40.70;18.60;;;;;;;-1.16;78.33;102381.89;219399;1253;139290;-67
2023/02/07 18:30:38;;;;;;;41.10;22.00;;;;;;;-1.15;78.45;102388.16;218835;1254;140180;-65
2023/02/07 18:35:43;;;;;;;67.90;28.70;;;;;;;-1.19;78.38;102392.54;219483;1254;140376;-65
2023/02/07 18:40:47;;;;;;;48.40;22.00;;;;;;;-1.19;78.21;102405.98;218342;1257;141184;-65
2023/02/07 18:45:51;;;;;;;50.80;22.50;;;;;;;-1.15;78.30;102409.41;217875;1254;140574;-63
2023/02/07 18:50:57;;;;;;;34.40;19.80;;;;;;;-1.14;78.65;102410.90;219455;1254;139565;-63
2023/02/07 18:56:07;;;;;;;30.70;17.90;;;;;;;-1.14;78.53;102408.50;219090;1254;139762;-66
2023/02/07 19:01:17;;;;;;;30.30;19.10;;;;;;;-1.19;78.52;102409.34;218665;1254;139414;-65
2023/02/07 19:06:24;;;;;;;33.10;20.00;;;;;;;-1.22;78.77;102406.88;218556;1254;140258;-64
2023/02/07 19:11:28;;;;;;;32.20;18.60;;;;;;;-1.26;78.73;102399.64;218074;1257;141093;-68
2023/02/07 19:16:33;;;;;;;34.00;19.00;;;;;;;-1.30;78.65;102402.69;219993;1254;140493;-65
2023/02/07 19:21:38;;;;;;;31.00;17.80;;;;;;;-1.30;78.64;102399.17;218671;1254;139990;-63
2023/02/07 19:26:44;;;;;;;40.50;22.30;;;;;;;-1.27;78.64;102396.54;219429;1254;139687;-62
2023/02/07 19:31:49;;;;;;;37.80;19.90;;;;;;;-1.26;78.77;102392.70;219645;1254;141010;-62
2023/02/07 19:36:54;;;;;;;25.60;15.70;;;;;;;-1.31;78.75;102401.88;218688;1254;140251;-69
2023/02/07 19:41:58;;;;;;;39.20;21.00;;;;;;;-1.42;78.31;102397.46;220051;1254;139095;-67
2023/02/07 19:47:03;;;;;;;41.30;21.00;;;;;;;-1.42;78.94;102398.70;219145;1254;140608;-63
2023/02/07 19:52:08;;;;;;;39.90;23.00;;;;;;;-1.35;78.87;102395.30;221061;1253;140002;-63
2023/02/07 19:57:13;;;;;;;48.20;23.30;;;;;;;-1.29;79.34;102389.00;221054;1253;149952;-67
2023/02/07 20:02:18;;;;;;;25.60;19.40;;;;;;;-1.25;79.02;102381.07;221077;1252;140625;-66
2023/02/07 20:07:24;;;;;;;34.50;20.30;;;;;;;-1.31;78.65;102379.02;220659;1254;140612;-63
2023/02/07 20:12:36;;;;;;;38.40;19.80;;;;;;;-1.28;78.62;102386.16;220129;1253;140152;-68
2023/02/07 20:17:40;;;;;;;34.40;20.60;;;;;;;-1.22;79.16;102388.54;220096;1254;140213;-63
2023/02/07 20:22:44;;;;;;;44.20;21.20;;;;;;;-1.23;79.09;102395.06;219384;1254;140045;-66
2023/02/07 20:27:48;;;;;;;38.50;20.50;;;;;;;-1.25;78.74;102397.01;219048;1253;222402;-66
2023/02/07 20:32:53;;;;;;;32.30;19.10;;;;;;;-1.31;78.86;102402.21;218836;1254;139509;-66
2023/02/07 20:37:58;;;;;;;42.10;20.90;;;;;;;-1.35;79.00;102406.33;218542;1254;139491;-64
2023/02/07 20:43:03;;;;;;;37.30;21.10;;;;;;;-1.32;78.78;102415.57;220006;1254;140248;-64
2023/02/07 20:48:12;;;;;;;42.30;24.80;;;;;;;-1.31;79.16;102416.67;218737;1254;140825;-66
2023/02/07 20:53:16;;;;;;;37.10;23.10;;;;;;;-1.28;79.19;102421.41;218344;1253;152288;-65
2023/02/07 20:58:21;;;;;;;41.40;25.10;;;;;;;-1.30;79.38;102428.67;219390;1254;139818;-63
2023/02/07 21:03:25;;;;;;;40.90;21.80;;;;;;;-1.33;79.42;102431.45;218714;1254;139332;-68
2023/02/07 21:08:29;;;;;;;46.80;24.20;;;;;;;-1.35;79.70;102431.94;219806;1253;235030;-67
2023/02/07 21:13:35;;;;;;;48.60;23.50;;;;;;;-1.39;79.35;102444.05;218780;1254;139947;-67
2023/02/07 21:18:44;;;;;;;47.40;25.00;;;;;;;-1.38;79.23;102449.56;219575;1253;140992;-67
2023/02/07 21:23:51;;;;;;;56.90;26.20;;;;;;;-1.35;79.33;102455.81;218346;1254;139723;-64
2023/02/07 21:29:00;;;;;;;61.40;27.50;;;;;;;-1.37;79.58;102454.35;218535;1253;140024;-69
2023/02/07 21:34:05;;;;;;;58.40;30.60;;;;;;;-1.37;79.86;102457.19;218924;1254;151682;-64
2023/02/07 21:39:10;;;;;;;63.00;33.20;;;;;;;-1.35;79.90;102464.05;218810;1254;139620;-65
2023/02/07 21:44:18;;;;;;;57.00;28.60;;;;;;;-1.35;80.03;102467.67;218859;1254;140267;-65
2023/02/07 21:49:23;;;;;;;52.30;27.90;;;;;;;-1.32;79.60;102470.52;220819;1253;140186;-65
2023/02/07 21:54:27;;;;;;;41.70;24.60;;;;;;;-1.33;79.89;102468.08;220900;1253;140581;-66
2023/02/07 21:59:31;;;;;;;41.20;25.20;;;;;;;-1.40;79.52;102470.05;221029;1253;140134;-66
2023/02/07 22:04:35;;;;;;;46.10;28.50;;;;;;;-1.38;79.89;102469.42;220792;1254;140619;-68
2023/02/07 22:09:40;;;;;;;47.70;26.00;;;;;;;-1.35;79.70;102476.59;220575;1253;140132;-70
2023/02/07 22:14:44;;;;;;;63.30;29.20;;;;;;;-1.35;79.65;102484.29;219319;1253;140099;-73
2023/02/07 22:19:50;;;;;;;53.10;28.00;;;;;;;-1.29;79.64;102491.23;218064;1256;141437;-70
2023/02/07 22:24:54;;;;;;;52.80;28.10;;;;;;;-1.28;79.85;102493.08;219878;1253;140092;-68
2023/02/07 22:29:58;;;;;;;58.80;26.60;;;;;;;-1.29;79.82;102489.66;218317;1253;140095;-65
2023/02/07 22:35:03;;;;;;;58.90;30.50;;;;;;;-1.31;80.02;102484.39;219257;1256;139856;-68
2023/02/07 22:40:08;;;;;;;75.80;33.00;;;;;;;-1.36;80.01;102484.48;219575;1253;139417;-65
2023/02/07 22:45:12;;;;;;;59.30;32.20;;;;;;;-1.40;80.04;102485.94;219219;1253;139630;-65
2023/02/07 22:50:16;;;;;;;62.50;31.20;;;;;;;-1.37;80.08;102489.79;218584;1253;140317;-63
2023/02/07 22:55:21;;;;;;;67.00;33.10;;;;;;;-1.33;80.17;102495.34;219358;1253;140159;-65